sensor_id;sensor_type;location;lat;lon;timestamp;temperature;humidity
16532;DHT22;66872;63.142;14.482;2023-05-08T00:02:00;15.30;1.00
16532;DHT22;66872;63.142;14.482;2023-05-08T00:04:26;15.30;1.00
16532;DHT22;66872;63.142;14.482;2023-05-08T00:06:52;15.30;1.00
16532;DHT22;66872;63.142;14.482;2023-05-08T00:09:19;15.30;1.00
16532;DHT22;66872;63.142;14.482;2023-05-08T00:11:44;15.30;1.00
16532;DHT22;66872;63.142;14.482;2023-05-08T00:14:10;15.30;1.00
16532;DHT22;66872;63.142;14.482;2023-05-08T00:16:36;15.20;1.00
16532;DHT22;66872;63.142;14.482;2023-05-08T00:19:02;15.20;1.00
16532;DHT22;66872;63.142;14.482;2023-05-08T00:21:28;15.20;1.00
16532;DHT22;66872;63.142;14.482;2023-05-08T00:23:54;15.20;1.00
16532;DHT22;66872;63.142;14.482;2023-05-08T00:26:19;15.20;1.00
16532;DHT22;66872;63.142;14.482;2023-05-08T00:28:46;15.20;1.00
16532;DHT22;66872;63.142;14.482;2023-05-08T00:31:12;15.20;1.00
16532;DHT22;66872;63.142;14.482;2023-05-08T00:33:38;15.20;1.00
16532;DHT22;66872;63.142;14.482;2023-05-08T00:36:04;15.20;1.00
16532;DHT22;66872;63.142;14.482;2023-05-08T00:38:31;15.10;1.00
16532;DHT22;66872;63.142;14.482;2023-05-08T00:40:57;15.10;1.00
16532;DHT22;66872;63.142;14.482;2023-05-08T00:43:23;15.10;1.00
16532;DHT22;66872;63.142;14.482;2023-05-08T00:45:55;15.10;1.00
16532;DHT22;66872;63.142;14.482;2023-05-08T00:48:21;15.10;1.00
16532;DHT22;66872;63.142;14.482;2023-05-08T00:50:51;15.10;1.00
16532;DHT22;66872;63.142;14.482;2023-05-08T00:53:18;15.10;1.00
16532;DHT22;66872;63.142;14.482;2023-05-08T00:55:44;15.10;1.00
16532;DHT22;66872;63.142;14.482;2023-05-08T00:58:10;15.10;1.00
16532;DHT22;66872;63.142;14.482;2023-05-08T01:00:38;15.10;1.00
16532;DHT22;66872;63.142;14.482;2023-05-08T01:03:06;15.00;1.00
16532;DHT22;66872;63.142;14.482;2023-05-08T01:05:32;15.00;1.00
16532;DHT22;66872;63.142;14.482;2023-05-08T01:07:58;15.00;1.00
16532;DHT22;66872;63.142;14.482;2023-05-08T01:10:26;15.00;1.00
16532;DHT22;66872;63.142;14.482;2023-05-08T01:18:43;15.00;1.00
16532;DHT22;66872;63.142;14.482;2023-05-08T01:37:31;14.80;1.00
16532;DHT22;66872;63.142;14.482;2023-05-08T01:40:10;14.80;1.00
16532;DHT22;66872;63.142;14.482;2023-05-08T01:42:48;14.80;1.00
16532;DHT22;66872;63.142;14.482;2023-05-08T01:45:25;14.80;1.00
16532;DHT22;66872;63.142;14.482;2023-05-08T01:48:03;14.80;1.00
16532;DHT22;66872;63.142;14.482;2023-05-08T01:50:49;14.80;1.00
16532;DHT22;66872;63.142;14.482;2023-05-08T01:53:27;14.80;1.00
16532;DHT22;66872;63.142;14.482;2023-05-08T01:55:57;14.70;1.00
16532;DHT22;66872;63.142;14.482;2023-05-08T01:58:24;14.70;1.00
16532;DHT22;66872;63.142;14.482;2023-05-08T02:00:52;14.70;1.00
16532;DHT22;66872;63.142;14.482;2023-05-08T02:03:20;14.70;1.00
16532;DHT22;66872;63.142;14.482;2023-05-08T02:05:47;14.70;1.00
16532;DHT22;66872;63.142;14.482;2023-05-08T02:08:14;14.70;1.00
16532;DHT22;66872;63.142;14.482;2023-05-08T02:10:42;14.70;1.00
16532;DHT22;66872;63.142;14.482;2023-05-08T02:13:09;14.70;1.00
16532;DHT22;66872;63.142;14.482;2023-05-08T02:15:36;14.70;1.00
16532;DHT22;66872;63.142;14.482;2023-05-08T02:18:07;14.70;1.00
16532;DHT22;66872;63.142;14.482;2023-05-08T02:20:33;14.70;1.00
16532;DHT22;66872;63.142;14.482;2023-05-08T02:23:01;14.60;1.00
16532;DHT22;66872;63.142;14.482;2023-05-08T02:25:28;14.60;1.00
16532;DHT22;66872;63.142;14.482;2023-05-08T02:27:55;14.60;1.00
16532;DHT22;66872;63.142;14.482;2023-05-08T02:30:24;14.60;1.00
16532;DHT22;66872;63.142;14.482;2023-05-08T02:32:51;14.60;1.00
16532;DHT22;66872;63.142;14.482;2023-05-08T02:35:18;14.60;1.00
16532;DHT22;66872;63.142;14.482;2023-05-08T02:37:51;14.60;1.00
16532;DHT22;66872;63.142;14.482;2023-05-08T02:40:19;14.60;1.00
16532;DHT22;66872;63.142;14.482;2023-05-08T02:42:46;14.60;1.00
16532;DHT22;66872;63.142;14.482;2023-05-08T02:45:13;14.60;1.00
16532;DHT22;66872;63.142;14.482;2023-05-08T02:50:50;14.60;1.00
16532;DHT22;66872;63.142;14.482;2023-05-08T02:53:25;14.60;1.00
16532;DHT22;66872;63.142;14.482;2023-05-08T02:55:56;14.60;1.00
16532;DHT22;66872;63.142;14.482;2023-05-08T02:58:34;14.60;1.00
16532;DHT22;66872;63.142;14.482;2023-05-08T03:01:23;14.60;1.00
16532;DHT22;66872;63.142;14.482;2023-05-08T03:04:39;14.60;1.00
16532;DHT22;66872;63.142;14.482;2023-05-08T03:06:47;14.60;1.00
16532;DHT22;66872;63.142;14.482;2023-05-08T03:09:19;14.60;1.00
16532;DHT22;66872;63.142;14.482;2023-05-08T03:11:48;14.60;1.00
16532;DHT22;66872;63.142;14.482;2023-05-08T03:14:19;14.50;1.00
16532;DHT22;66872;63.142;14.482;2023-05-08T03:16:49;14.60;1.00
16532;DHT22;66872;63.142;14.482;2023-05-08T03:19:29;14.60;1.00
16532;DHT22;66872;63.142;14.482;2023-05-08T03:21:57;14.60;1.00
16532;DHT22;66872;63.142;14.482;2023-05-08T03:24:24;14.60;1.00
16532;DHT22;66872;63.142;14.482;2023-05-08T03:26:52;14.60;1.00
16532;DHT22;66872;63.142;14.482;2023-05-08T03:29:19;14.60;1.00
16532;DHT22;66872;63.142;14.482;2023-05-08T03:31:46;14.60;1.00
16532;DHT22;66872;63.142;14.482;2023-05-08T03:34:13;14.60;1.00
16532;DHT22;66872;63.142;14.482;2023-05-08T03:36:40;14.60;1.00
16532;DHT22;66872;63.142;14.482;2023-05-08T03:39:06;14.60;1.00
16532;DHT22;66872;63.142;14.482;2023-05-08T03:41:32;14.60;1.00
16532;DHT22;66872;63.142;14.482;2023-05-08T03:43:58;14.60;1.00
16532;DHT22;66872;63.142;14.482;2023-05-08T03:46:26;14.60;1.00
16532;DHT22;66872;63.142;14.482;2023-05-08T03:48:53;14.60;1.00
16532;DHT22;66872;63.142;14.482;2023-05-08T03:51:20;14.60;1.00
16532;DHT22;66872;63.142;14.482;2023-05-08T03:53:46;14.70;1.00
16532;DHT22;66872;63.142;14.482;2023-05-08T03:56:11;14.70;1.00
16532;DHT22;66872;63.142;14.482;2023-05-08T03:58:43;14.70;1.00
16532;DHT22;66872;63.142;14.482;2023-05-08T04:01:39;14.60;1.00
16532;DHT22;66872;63.142;14.482;2023-05-08T04:04:19;14.70;1.00
16532;DHT22;66872;63.142;14.482;2023-05-08T04:10:11;14.70;1.00
16532;DHT22;66872;63.142;14.482;2023-05-08T04:15:19;14.70;1.00
16532;DHT22;66872;63.142;14.482;2023-05-08T04:18:13;14.80;1.00
16532;DHT22;66872;63.142;14.482;2023-05-08T04:20:40;14.90;1.00
16532;DHT22;66872;63.142;14.482;2023-05-08T04:23:06;15.00;1.00
16532;DHT22;66872;63.142;14.482;2023-05-08T04:25:35;15.00;1.00
16532;DHT22;66872;63.142;14.482;2023-05-08T04:28:02;15.00;1.00
16532;DHT22;66872;63.142;14.482;2023-05-08T04:30:28;15.00;1.00
16532;DHT22;66872;63.142;14.482;2023-05-08T04:32:55;15.10;1.00
16532;DHT22;66872;63.142;14.482;2023-05-08T04:35:21;15.10;1.00
16532;DHT22;66872;63.142;14.482;2023-05-08T04:37:47;15.20;1.00
16532;DHT22;66872;63.142;14.482;2023-05-08T04:40:12;15.30;1.00
16532;DHT22;66872;63.142;14.482;2023-05-08T04:42:38;15.50;1.00
16532;DHT22;66872;63.142;14.482;2023-05-08T04:45:08;15.80;1.00
16532;DHT22;66872;63.142;14.482;2023-05-08T04:47:34;16.10;1.00
16532;DHT22;66872;63.142;14.482;2023-05-08T04:50:00;16.40;1.00
16532;DHT22;66872;63.142;14.482;2023-05-08T04:52:26;16.60;1.00
16532;DHT22;66872;63.142;14.482;2023-05-08T04:54:51;16.80;1.00
16532;DHT22;66872;63.142;14.482;2023-05-08T04:57:17;17.00;1.00
16532;DHT22;66872;63.142;14.482;2023-05-08T04:59:43;17.20;1.00
16532;DHT22;66872;63.142;14.482;2023-05-08T05:02:08;17.40;1.00
16532;DHT22;66872;63.142;14.482;2023-05-08T05:04:35;17.50;1.00
16532;DHT22;66872;63.142;14.482;2023-05-08T05:07:02;17.70;1.00
16532;DHT22;66872;63.142;14.482;2023-05-08T05:09:28;17.80;1.00
16532;DHT22;66872;63.142;14.482;2023-05-08T05:11:53;17.70;1.00
16532;DHT22;66872;63.142;14.482;2023-05-08T05:14:19;17.60;1.00
16532;DHT22;66872;63.142;14.482;2023-05-08T05:16:45;17.50;1.00
16532;DHT22;66872;63.142;14.482;2023-05-08T05:19:11;17.50;1.00
16532;DHT22;66872;63.142;14.482;2023-05-08T05:21:37;17.70;1.00
16532;DHT22;66872;63.142;14.482;2023-05-08T05:24:04;17.90;1.00
16532;DHT22;66872;63.142;14.482;2023-05-08T05:26:30;17.90;1.00
16532;DHT22;66872;63.142;14.482;2023-05-08T05:28:56;18.10;1.00
16532;DHT22;66872;63.142;14.482;2023-05-08T05:31:21;18.30;1.00
16532;DHT22;66872;63.142;14.482;2023-05-08T05:33:47;18.60;1.00
16532;DHT22;66872;63.142;14.482;2023-05-08T05:36:13;18.70;1.00
16532;DHT22;66872;63.142;14.482;2023-05-08T05:38:39;18.90;1.00
16532;DHT22;66872;63.142;14.482;2023-05-08T05:41:05;19.00;1.00
16532;DHT22;66872;63.142;14.482;2023-05-08T05:43:31;19.20;1.00
16532;DHT22;66872;63.142;14.482;2023-05-08T05:46:06;19.30;1.00
16532;DHT22;66872;63.142;14.482;2023-05-08T05:48:32;19.40;1.00
16532;DHT22;66872;63.142;14.482;2023-05-08T05:50:58;19.50;1.00
16532;DHT22;66872;63.142;14.482;2023-05-08T05:53:23;19.60;1.00
16532;DHT22;66872;63.142;14.482;2023-05-08T05:55:49;19.70;1.00
16532;DHT22;66872;63.142;14.482;2023-05-08T05:58:15;19.80;1.00
16532;DHT22;66872;63.142;14.482;2023-05-08T06:00:41;19.90;1.00
16532;DHT22;66872;63.142;14.482;2023-05-08T06:03:07;20.00;1.00
16532;DHT22;66872;63.142;14.482;2023-05-08T06:05:35;20.00;1.00
16532;DHT22;66872;63.142;14.482;2023-05-08T06:08:00;20.10;1.00
16532;DHT22;66872;63.142;14.482;2023-05-08T06:10:26;20.20;1.00
16532;DHT22;66872;63.142;14.482;2023-05-08T06:12:52;20.30;1.00
16532;DHT22;66872;63.142;14.482;2023-05-08T06:15:18;20.30;1.00
16532;DHT22;66872;63.142;14.482;2023-05-08T06:17:43;20.40;1.00
16532;DHT22;66872;63.142;14.482;2023-05-08T06:20:09;20.50;1.00
16532;DHT22;66872;63.142;14.482;2023-05-08T06:22:35;20.60;1.00
16532;DHT22;66872;63.142;14.482;2023-05-08T06:25:04;20.70;1.00
16532;DHT22;66872;63.142;14.482;2023-05-08T06:27:31;20.80;1.00
16532;DHT22;66872;63.142;14.482;2023-05-08T06:29:58;20.90;1.00
16532;DHT22;66872;63.142;14.482;2023-05-08T06:32:23;20.90;1.00
16532;DHT22;66872;63.142;14.482;2023-05-08T06:34:49;21.00;1.00
16532;DHT22;66872;63.142;14.482;2023-05-08T06:37:15;21.10;1.00
16532;DHT22;66872;63.142;14.482;2023-05-08T06:39:41;21.20;1.00
16532;DHT22;66872;63.142;14.482;2023-05-08T06:42:06;21.30;1.00
16532;DHT22;66872;63.142;14.482;2023-05-08T06:44:32;21.30;1.00
16532;DHT22;66872;63.142;14.482;2023-05-08T06:46:58;21.30;1.00
16532;DHT22;66872;63.142;14.482;2023-05-08T06:49:24;21.30;1.00
16532;DHT22;66872;63.142;14.482;2023-05-08T06:51:49;21.40;1.00
16532;DHT22;66872;63.142;14.482;2023-05-08T06:54:15;21.40;1.00
16532;DHT22;66872;63.142;14.482;2023-05-08T06:56:41;21.40;1.00
16532;DHT22;66872;63.142;14.482;2023-05-08T06:59:07;21.40;1.00
16532;DHT22;66872;63.142;14.482;2023-05-08T07:01:33;21.40;1.00
16532;DHT22;66872;63.142;14.482;2023-05-08T07:03:58;21.50;1.00
16532;DHT22;66872;63.142;14.482;2023-05-08T07:06:25;21.50;1.00
16532;DHT22;66872;63.142;14.482;2023-05-08T07:08:52;21.50;1.00
16532;DHT22;66872;63.142;14.482;2023-05-08T07:11:18;21.50;1.00
16532;DHT22;66872;63.142;14.482;2023-05-08T07:13:43;21.50;1.00
16532;DHT22;66872;63.142;14.482;2023-05-08T07:16:13;21.50;1.00
16532;DHT22;66872;63.142;14.482;2023-05-08T07:18:38;21.50;1.00
16532;DHT22;66872;63.142;14.482;2023-05-08T07:21:04;21.50;1.00
16532;DHT22;66872;63.142;14.482;2023-05-08T07:23:30;21.50;1.00
16532;DHT22;66872;63.142;14.482;2023-05-08T07:25:56;21.50;1.00
16532;DHT22;66872;63.142;14.482;2023-05-08T07:28:22;21.40;1.00
16532;DHT22;66872;63.142;14.482;2023-05-08T07:30:48;21.40;1.00
16532;DHT22;66872;63.142;14.482;2023-05-08T07:33:14;21.40;1.00
16532;DHT22;66872;63.142;14.482;2023-05-08T07:35:40;21.40;1.00
16532;DHT22;66872;63.142;14.482;2023-05-08T07:38:06;21.40;1.00
16532;DHT22;66872;63.142;14.482;2023-05-08T07:40:32;21.30;1.00
16532;DHT22;66872;63.142;14.482;2023-05-08T07:42:57;21.30;1.00
16532;DHT22;66872;63.142;14.482;2023-05-08T07:45:23;21.30;1.00
16532;DHT22;66872;63.142;14.482;2023-05-08T07:47:53;21.30;1.00
16532;DHT22;66872;63.142;14.482;2023-05-08T07:50:21;21.30;1.00
16532;DHT22;66872;63.142;14.482;2023-05-08T07:52:47;21.20;1.00
16532;DHT22;66872;63.142;14.482;2023-05-08T07:55:13;21.20;1.00
16532;DHT22;66872;63.142;14.482;2023-05-08T07:57:40;21.20;1.00
16532;DHT22;66872;63.142;14.482;2023-05-08T08:00:07;21.20;1.00
16532;DHT22;66872;63.142;14.482;2023-05-08T08:02:34;21.10;1.00
16532;DHT22;66872;63.142;14.482;2023-05-08T08:04:59;21.10;1.00
16532;DHT22;66872;63.142;14.482;2023-05-08T08:07:25;21.10;1.00
16532;DHT22;66872;63.142;14.482;2023-05-08T08:09:51;21.10;1.00
16532;DHT22;66872;63.142;14.482;2023-05-08T08:12:17;21.10;1.00
16532;DHT22;66872;63.142;14.482;2023-05-08T08:14:43;21.10;1.00
16532;DHT22;66872;63.142;14.482;2023-05-08T08:17:08;21.10;1.00
16532;DHT22;66872;63.142;14.482;2023-05-08T08:19:34;21.00;1.00
16532;DHT22;66872;63.142;14.482;2023-05-08T08:22:00;21.00;1.00
16532;DHT22;66872;63.142;14.482;2023-05-08T08:24:25;21.00;1.00
16532;DHT22;66872;63.142;14.482;2023-05-08T08:26:53;21.00;1.00
16532;DHT22;66872;63.142;14.482;2023-05-08T08:29:19;21.00;1.00
16532;DHT22;66872;63.142;14.482;2023-05-08T08:31:44;20.90;1.00
16532;DHT22;66872;63.142;14.482;2023-05-08T08:34:10;20.90;1.00
16532;DHT22;66872;63.142;14.482;2023-05-08T08:36:37;20.90;1.00
16532;DHT22;66872;63.142;14.482;2023-05-08T08:39:03;20.90;1.00
16532;DHT22;66872;63.142;14.482;2023-05-08T08:41:29;20.90;1.00
16532;DHT22;66872;63.142;14.482;2023-05-08T08:43:55;20.80;1.00
16532;DHT22;66872;63.142;14.482;2023-05-08T08:46:24;20.80;1.00
16532;DHT22;66872;63.142;14.482;2023-05-08T08:48:55;20.80;1.00
16532;DHT22;66872;63.142;14.482;2023-05-08T08:51:27;20.80;1.00
16532;DHT22;66872;63.142;14.482;2023-05-08T08:54:18;20.80;1.00
16532;DHT22;66872;63.142;14.482;2023-05-08T08:56:48;20.80;1.00
16532;DHT22;66872;63.142;14.482;2023-05-08T08:59:16;20.70;1.00
16532;DHT22;66872;63.142;14.482;2023-05-08T09:01:44;20.70;1.00
16532;DHT22;66872;63.142;14.482;2023-05-08T09:04:12;20.70;1.00
16532;DHT22;66872;63.142;14.482;2023-05-08T09:06:38;20.70;1.00
16532;DHT22;66872;63.142;14.482;2023-05-08T09:09:06;20.60;1.00
16532;DHT22;66872;63.142;14.482;2023-05-08T09:11:32;20.60;1.00
16532;DHT22;66872;63.142;14.482;2023-05-08T09:13:58;20.50;1.00
16532;DHT22;66872;63.142;14.482;2023-05-08T09:16:24;20.50;1.00
16532;DHT22;66872;63.142;14.482;2023-05-08T09:18:50;20.50;1.00
16532;DHT22;66872;63.142;14.482;2023-05-08T09:21:16;20.50;1.00
16532;DHT22;66872;63.142;14.482;2023-05-08T09:23:56;20.40;1.00
16532;DHT22;66872;63.142;14.482;2023-05-08T09:26:26;20.40;1.00
16532;DHT22;66872;63.142;14.482;2023-05-08T09:29:11;20.30;1.00
16532;DHT22;66872;63.142;14.482;2023-05-08T09:31:40;20.30;1.00
16532;DHT22;66872;63.142;14.482;2023-05-08T09:34:07;20.30;1.00
16532;DHT22;66872;63.142;14.482;2023-05-08T09:36:33;20.20;1.00
16532;DHT22;66872;63.142;14.482;2023-05-08T09:39:02;20.20;1.00
16532;DHT22;66872;63.142;14.482;2023-05-08T09:41:28;20.20;1.00
16532;DHT22;66872;63.142;14.482;2023-05-08T09:44:05;20.20;1.00
16532;DHT22;66872;63.142;14.482;2023-05-08T09:46:32;20.10;1.00
16532;DHT22;66872;63.142;14.482;2023-05-08T09:49:00;20.10;1.00
16532;DHT22;66872;63.142;14.482;2023-05-08T09:51:28;20.10;1.00
16532;DHT22;66872;63.142;14.482;2023-05-08T09:53:56;20.00;1.00
16532;DHT22;66872;63.142;14.482;2023-05-08T09:56:36;20.00;1.00
16532;DHT22;66872;63.142;14.482;2023-05-08T09:59:24;19.90;1.00
16532;DHT22;66872;63.142;14.482;2023-05-08T10:01:53;19.90;1.00
16532;DHT22;66872;63.142;14.482;2023-05-08T10:04:36;19.90;1.00
16532;DHT22;66872;63.142;14.482;2023-05-08T10:07:02;19.80;1.00
16532;DHT22;66872;63.142;14.482;2023-05-08T10:09:28;19.80;1.00
16532;DHT22;66872;63.142;14.482;2023-05-08T10:11:55;19.80;1.00
16532;DHT22;66872;63.142;14.482;2023-05-08T10:14:22;19.70;1.00
16532;DHT22;66872;63.142;14.482;2023-05-08T10:16:52;19.70;1.00
16532;DHT22;66872;63.142;14.482;2023-05-08T10:19:20;19.60;1.00
16532;DHT22;66872;63.142;14.482;2023-05-08T10:21:49;19.60;1.00
16532;DHT22;66872;63.142;14.482;2023-05-08T10:29:53;19.50;1.00
16532;DHT22;66872;63.142;14.482;2023-05-08T10:32:22;19.40;1.00
16532;DHT22;66872;63.142;14.482;2023-05-08T10:34:57;19.40;1.00
16532;DHT22;66872;63.142;14.482;2023-05-08T10:37:23;19.30;1.00
16532;DHT22;66872;63.142;14.482;2023-05-08T10:39:51;19.30;1.00
16532;DHT22;66872;63.142;14.482;2023-05-08T10:42:18;19.20;1.00
16532;DHT22;66872;63.142;14.482;2023-05-08T10:44:45;19.20;1.00
16532;DHT22;66872;63.142;14.482;2023-05-08T10:47:35;19.20;1.00
16532;DHT22;66872;63.142;14.482;2023-05-08T10:53:16;19.10;1.00
16532;DHT22;66872;63.142;14.482;2023-05-08T10:55:49;19.00;1.00
16532;DHT22;66872;63.142;14.482;2023-05-08T10:58:36;19.00;1.00
16532;DHT22;66872;63.142;14.482;2023-05-08T11:03:44;19.00;1.00
16532;DHT22;66872;63.142;14.482;2023-05-08T11:06:11;18.90;1.00
16532;DHT22;66872;63.142;14.482;2023-05-08T11:08:46;18.90;1.00
16532;DHT22;66872;63.142;14.482;2023-05-08T11:11:16;18.90;1.00
16532;DHT22;66872;63.142;14.482;2023-05-08T11:13:51;18.90;1.00
16532;DHT22;66872;63.142;14.482;2023-05-08T11:16:17;18.80;1.00
16532;DHT22;66872;63.142;14.482;2023-05-08T11:19:17;18.80;1.00
16532;DHT22;66872;63.142;14.482;2023-05-08T11:24:37;18.80;1.00
16532;DHT22;66872;63.142;14.482;2023-05-08T11:27:03;18.70;1.00
16532;DHT22;66872;63.142;14.482;2023-05-08T11:29:29;18.70;1.00
16532;DHT22;66872;63.142;14.482;2023-05-08T11:31:55;18.70;1.00
16532;DHT22;66872;63.142;14.482;2023-05-08T11:37:09;18.70;1.00
16532;DHT22;66872;63.142;14.482;2023-05-08T11:39:35;18.70;1.00
16532;DHT22;66872;63.142;14.482;2023-05-08T11:45:05;18.70;1.00
16532;DHT22;66872;63.142;14.482;2023-05-08T11:47:42;18.70;1.00
16532;DHT22;66872;63.142;14.482;2023-05-08T11:50:09;18.60;1.00
16532;DHT22;66872;63.142;14.482;2023-05-08T11:52:37;18.60;1.00
16532;DHT22;66872;63.142;14.482;2023-05-08T11:55:10;18.60;1.00
16532;DHT22;66872;63.142;14.482;2023-05-08T11:57:36;18.60;1.00
16532;DHT22;66872;63.142;14.482;2023-05-08T12:00:09;18.60;1.00
16532;DHT22;66872;63.142;14.482;2023-05-08T12:02:41;18.60;1.00
16532;DHT22;66872;63.142;14.482;2023-05-08T12:05:08;18.50;1.00
16532;DHT22;66872;63.142;14.482;2023-05-08T12:07:44;18.50;1.00
16532;DHT22;66872;63.142;14.482;2023-05-08T12:10:11;18.60;1.00
16532;DHT22;66872;63.142;14.482;2023-05-08T12:12:41;18.50;1.00
16532;DHT22;66872;63.142;14.482;2023-05-08T12:15:14;18.50;1.00
16532;DHT22;66872;63.142;14.482;2023-05-08T12:17:40;18.40;1.00
16532;DHT22;66872;63.142;14.482;2023-05-08T12:20:13;18.40;1.00
16532;DHT22;66872;63.142;14.482;2023-05-08T12:22:40;18.30;1.00
16532;DHT22;66872;63.142;14.482;2023-05-08T12:25:09;18.40;1.00
16532;DHT22;66872;63.142;14.482;2023-05-08T12:27:35;18.40;1.00
16532;DHT22;66872;63.142;14.482;2023-05-08T12:30:12;18.40;1.00
16532;DHT22;66872;63.142;14.482;2023-05-08T12:32:40;18.40;1.00
16532;DHT22;66872;63.142;14.482;2023-05-08T12:35:11;18.50;1.00
16532;DHT22;66872;63.142;14.482;2023-05-08T12:37:38;18.50;1.00
16532;DHT22;66872;63.142;14.482;2023-05-08T12:40:05;18.50;1.00
16532;DHT22;66872;63.142;14.482;2023-05-08T12:42:41;18.50;1.00
16532;DHT22;66872;63.142;14.482;2023-05-08T12:45:07;18.50;1.00
16532;DHT22;66872;63.142;14.482;2023-05-08T12:47:33;18.50;1.00
16532;DHT22;66872;63.142;14.482;2023-05-08T12:49:59;18.50;1.00
16532;DHT22;66872;63.142;14.482;2023-05-08T12:52:27;18.40;1.00
16532;DHT22;66872;63.142;14.482;2023-05-08T12:54:53;18.50;1.00
16532;DHT22;66872;63.142;14.482;2023-05-08T12:57:19;18.50;1.00
16532;DHT22;66872;63.142;14.482;2023-05-08T12:59:47;18.50;1.00
16532;DHT22;66872;63.142;14.482;2023-05-08T13:02:20;18.50;1.00
16532;DHT22;66872;63.142;14.482;2023-05-08T13:04:55;18.40;1.00
16532;DHT22;66872;63.142;14.482;2023-05-08T13:07:21;18.40;1.00
16532;DHT22;66872;63.142;14.482;2023-05-08T13:10:00;18.40;1.00
16532;DHT22;66872;63.142;14.482;2023-05-08T13:12:29;18.40;1.00
16532;DHT22;66872;63.142;14.482;2023-05-08T13:14:55;18.40;1.00
16532;DHT22;66872;63.142;14.482;2023-05-08T13:17:20;18.40;1.00
16532;DHT22;66872;63.142;14.482;2023-05-08T13:19:46;18.40;1.00
16532;DHT22;66872;63.142;14.482;2023-05-08T13:22:12;18.40;1.00
16532;DHT22;66872;63.142;14.482;2023-05-08T13:24:37;18.40;1.00
16532;DHT22;66872;63.142;14.482;2023-05-08T13:27:03;18.40;1.00
16532;DHT22;66872;63.142;14.482;2023-05-08T13:29:29;18.40;1.00
16532;DHT22;66872;63.142;14.482;2023-05-08T13:31:55;18.40;1.00
16532;DHT22;66872;63.142;14.482;2023-05-08T13:34:20;18.40;1.00
16532;DHT22;66872;63.142;14.482;2023-05-08T13:36:46;18.40;1.00
16532;DHT22;66872;63.142;14.482;2023-05-08T13:39:12;18.30;1.00
16532;DHT22;66872;63.142;14.482;2023-05-08T13:41:37;18.30;1.00
16532;DHT22;66872;63.142;14.482;2023-05-08T13:44:03;18.30;1.00
16532;DHT22;66872;63.142;14.482;2023-05-08T13:46:29;18.30;1.00
16532;DHT22;66872;63.142;14.482;2023-05-08T13:48:54;18.40;1.00
16532;DHT22;66872;63.142;14.482;2023-05-08T13:51:20;18.40;1.00
16532;DHT22;66872;63.142;14.482;2023-05-08T13:53:46;18.40;1.00
16532;DHT22;66872;63.142;14.482;2023-05-08T13:56:11;18.40;1.00
16532;DHT22;66872;63.142;14.482;2023-05-08T13:58:37;18.40;1.00
16532;DHT22;66872;63.142;14.482;2023-05-08T14:01:03;18.40;1.00
16532;DHT22;66872;63.142;14.482;2023-05-08T14:03:28;18.40;1.00
16532;DHT22;66872;63.142;14.482;2023-05-08T14:05:54;18.40;1.00
16532;DHT22;66872;63.142;14.482;2023-05-08T14:08:20;18.40;1.00
16532;DHT22;66872;63.142;14.482;2023-05-08T14:13:48;18.40;1.00
16532;DHT22;66872;63.142;14.482;2023-05-08T14:16:14;18.40;1.00
16532;DHT22;66872;63.142;14.482;2023-05-08T14:18:40;18.40;1.00
16532;DHT22;66872;63.142;14.482;2023-05-08T14:21:06;18.40;1.00
16532;DHT22;66872;63.142;14.482;2023-05-08T14:23:31;18.50;1.00
16532;DHT22;66872;63.142;14.482;2023-05-08T14:25:57;18.50;1.00
16532;DHT22;66872;63.142;14.482;2023-05-08T14:28:23;18.50;1.00
16532;DHT22;66872;63.142;14.482;2023-05-08T14:30:48;18.50;1.00
16532;DHT22;66872;63.142;14.482;2023-05-08T14:33:14;18.50;1.00
16532;DHT22;66872;63.142;14.482;2023-05-08T14:35:40;18.50;1.00
16532;DHT22;66872;63.142;14.482;2023-05-08T14:38:08;18.50;1.00
16532;DHT22;66872;63.142;14.482;2023-05-08T14:40:36;18.50;1.00
16532;DHT22;66872;63.142;14.482;2023-05-08T14:43:02;18.50;1.00
16532;DHT22;66872;63.142;14.482;2023-05-08T14:45:28;18.50;1.00
16532;DHT22;66872;63.142;14.482;2023-05-08T14:47:54;18.50;1.00
16532;DHT22;66872;63.142;14.482;2023-05-08T14:50:19;18.50;1.00
16532;DHT22;66872;63.142;14.482;2023-05-08T14:52:45;18.50;1.00
16532;DHT22;66872;63.142;14.482;2023-05-08T14:55:10;18.50;1.00
16532;DHT22;66872;63.142;14.482;2023-05-08T14:57:36;18.50;1.00
16532;DHT22;66872;63.142;14.482;2023-05-08T15:00:02;18.50;1.00
16532;DHT22;66872;63.142;14.482;2023-05-08T15:02:28;18.50;1.00
16532;DHT22;66872;63.142;14.482;2023-05-08T15:04:54;18.50;1.00
16532;DHT22;66872;63.142;14.482;2023-05-08T15:07:20;18.50;1.00
16532;DHT22;66872;63.142;14.482;2023-05-08T15:09:45;18.50;1.00
16532;DHT22;66872;63.142;14.482;2023-05-08T15:12:12;18.50;1.00
16532;DHT22;66872;63.142;14.482;2023-05-08T15:14:37;18.50;1.00
16532;DHT22;66872;63.142;14.482;2023-05-08T15:17:03;18.50;1.00
16532;DHT22;66872;63.142;14.482;2023-05-08T15:19:29;18.50;1.00
16532;DHT22;66872;63.142;14.482;2023-05-08T15:21:54;18.50;1.00
16532;DHT22;66872;63.142;14.482;2023-05-08T15:24:20;18.50;1.00
16532;DHT22;66872;63.142;14.482;2023-05-08T15:26:45;18.50;1.00
16532;DHT22;66872;63.142;14.482;2023-05-08T15:29:11;18.50;1.00
16532;DHT22;66872;63.142;14.482;2023-05-08T15:31:37;18.50;1.00
16532;DHT22;66872;63.142;14.482;2023-05-08T15:34:02;18.50;1.00
16532;DHT22;66872;63.142;14.482;2023-05-08T15:36:28;18.50;1.00
16532;DHT22;66872;63.142;14.482;2023-05-08T15:38:55;18.50;1.00
16532;DHT22;66872;63.142;14.482;2023-05-08T15:41:21;18.50;1.00
16532;DHT22;66872;63.142;14.482;2023-05-08T15:43:47;18.50;1.00
16532;DHT22;66872;63.142;14.482;2023-05-08T15:46:12;18.50;1.00
16532;DHT22;66872;63.142;14.482;2023-05-08T15:48:38;18.50;1.00
16532;DHT22;66872;63.142;14.482;2023-05-08T15:51:04;18.50;1.00
16532;DHT22;66872;63.142;14.482;2023-05-08T15:53:31;18.40;1.00
16532;DHT22;66872;63.142;14.482;2023-05-08T15:55:56;18.50;1.00
16532;DHT22;66872;63.142;14.482;2023-05-08T15:58:22;18.40;1.00
16532;DHT22;66872;63.142;14.482;2023-05-08T16:00:48;18.40;1.00
16532;DHT22;66872;63.142;14.482;2023-05-08T16:03:13;18.50;1.00
16532;DHT22;66872;63.142;14.482;2023-05-08T16:05:39;18.40;1.00
16532;DHT22;66872;63.142;14.482;2023-05-08T16:08:05;18.50;1.00
16532;DHT22;66872;63.142;14.482;2023-05-08T16:10:32;18.40;1.00
16532;DHT22;66872;63.142;14.482;2023-05-08T16:12:58;18.40;1.00
16532;DHT22;66872;63.142;14.482;2023-05-08T16:15:24;18.40;1.00
16532;DHT22;66872;63.142;14.482;2023-05-08T16:17:49;18.40;1.00
16532;DHT22;66872;63.142;14.482;2023-05-08T16:20:15;18.30;1.00
16532;DHT22;66872;63.142;14.482;2023-05-08T16:22:41;18.40;1.00
16532;DHT22;66872;63.142;14.482;2023-05-08T16:25:07;18.40;1.00
16532;DHT22;66872;63.142;14.482;2023-05-08T16:27:32;18.30;1.00
16532;DHT22;66872;63.142;14.482;2023-05-08T16:29:58;18.30;1.00